Time;durP1;ratioP1;P1;durP2;ratioP2;P2;SDS_P1;SDS_P2;PMS_P1;PMS_P2;Temp;Humidity;BMP_temperature;BMP_pressure;BME280_temperature;BME280_humidity;BME280_pressure;Samples;Min_cycle;Max_cycle;Signal;HPM_P1;HPM_P2
2022/10/29 00:00:42;;;;;;;;;8.00;7.67;;;;;15.14;75.26;102121.50;5050188;28;9091;-66
2022/10/29 00:03:09;;;;;;;;;7.00;7.00;;;;;15.15;75.38;102125.91;5049473;28;9226;-68
2022/10/29 00:05:35;;;;;;;;;6.00;6.00;;;;;15.14;75.67;102126.91;5049962;28;9224;-68
2022/10/29 00:08:02;;;;;;;;;8.00;6.00;;;;;15.13;75.25;102130.66;5050247;28;9144;-68
2022/10/29 00:10:29;;;;;;;;;11.33;6.00;;;;;15.13;75.35;102125.25;5049189;28;9060;-68
2022/10/29 00:12:59;;;;;;;;;10.00;9.00;;;;;15.15;75.65;102136.75;5049711;28;9260;-68
2022/10/29 00:15:26;;;;;;;;;7.33;6.67;;;;;15.09;75.74;102132.09;5048992;28;9327;-68
2022/10/29 00:17:52;;;;;;;;;6.00;6.00;;;;;15.07;75.58;102115.19;5049847;28;9174;-67
2022/10/29 00:20:20;;;;;;;;;5.33;4.33;;;;;15.07;76.16;102115.19;5049760;28;9163;-68
2022/10/29 00:22:47;;;;;;;;;7.33;6.33;;;;;15.06;75.95;102102.63;5049346;28;9006;-67
2022/10/29 00:25:13;;;;;;;;;9.33;9.33;;;;;15.08;76.01;102106.00;5049647;28;9165;-66
2022/10/29 00:27:39;;;;;;;;;11.00;9.67;;;;;15.05;75.91;102109.09;5049270;28;9157;-65
2022/10/29 00:30:06;;;;;;;;;6.67;6.67;;;;;15.01;76.19;102108.63;5049120;28;9289;-66
2022/10/29 00:32:33;;;;;;;;;6.00;5.67;;;;;15.02;76.00;102120.31;5048849;28;9243;-66
2022/10/29 00:34:59;;;;;;;;;6.33;6.33;;;;;15.01;76.15;102124.91;5049646;28;9005;-68
2022/10/29 00:37:25;;;;;;;;;8.00;8.00;;;;;14.99;75.84;102118.84;5049978;28;9090;-68
2022/10/29 00:39:52;;;;;;;;;7.00;7.00;;;;;14.99;75.93;102112.56;5048320;28;9234;-69
2022/10/29 00:42:21;;;;;;;;;7.00;6.00;;;;;14.97;75.72;102115.47;5049496;28;9267;-67
2022/10/29 00:44:47;;;;;;;;;7.67;6.00;;;;;14.96;75.88;102112.97;5050071;28;9097;-67
2022/10/29 00:47:23;;;;;;;;;10.67;8.00;;;;;14.92;75.57;102107.09;5048300;28;9221;-67
2022/10/29 00:49:55;;;;;;;;;8.00;6.00;;;;;14.92;75.83;102109.78;5049204;28;9251;-67
2022/10/29 00:52:25;;;;;;;;;10.00;10.00;;;;;14.89;75.45;102099.31;5049257;28;9143;-67
2022/10/29 00:54:53;;;;;;;;;8.00;6.00;;;;;14.85;75.14;102100.75;5048781;28;10047;-68
2022/10/29 00:57:35;;;;;;;;;8.33;7.33;;;;;14.81;75.62;102092.16;5049238;28;9310;-68
2022/10/29 01:00:02;;;;;;;;;7.33;7.33;;;;;14.79;75.30;102086.09;5048392;28;9246;-67
2022/10/29 01:02:32;;;;;;;;;7.00;7.00;;;;;14.77;75.22;102088.16;5049193;28;9154;-67
2022/10/29 01:05:00;;;;;;;;;10.00;10.00;;;;;14.73;75.49;102088.72;5049605;28;9864;-68
2022/10/29 01:07:27;;;;;;;;;8.33;7.67;;;;;14.69;75.45;102095.56;5047557;28;9278;-68
2022/10/29 01:09:54;;;;;;;;;6.00;6.00;;;;;14.64;75.45;102098.84;5048156;28;9153;-66
2022/10/29 01:12:42;;;;;;;;;6.00;6.00;;;;;14.64;75.50;102103.44;5048945;28;9379;-68
2022/10/29 01:15:17;;;;;;;;;7.00;7.00;;;;;14.60;75.25;102089.41;5049170;28;9252;-68
2022/10/29 01:17:58;;;;;;;;;7.00;6.00;;;;;14.60;75.44;102092.13;5047590;28;9224;-69
2022/10/29 01:20:45;;;;;;;;;8.67;7.33;;;;;14.60;75.64;102081.28;5048151;28;9220;-68
2022/10/29 01:23:17;;;;;;;;;10.00;9.67;;;;;14.61;75.93;102077.53;5047990;28;10458;-67
2022/10/29 01:26:14;;;;;;;;;12.50;10.00;;;;;14.63;76.26;102066.53;5049213;28;9426;-68
2022/10/29 01:28:58;;;;;;;;;13.50;12.25;;;;;14.64;76.33;102051.94;5047876;28;9529;-67
2022/10/29 01:31:47;;;;;;;;;14.25;11.75;;;;;14.64;76.60;102060.91;5048110;28;9416;-67
2022/10/29 01:34:32;;;;;;;;;13.00;13.00;;;;;14.65;76.89;102051.72;5047089;28;10374;-68
2022/10/29 01:37:17;;;;;;;;;15.50;14.25;;;;;14.64;76.91;102043.81;5048284;28;9574;-65
2022/10/29 01:39:56;;;;;;;;;16.75;14.25;;;;;14.64;77.36;102038.38;5042400;28;9600;-67
2022/10/29 01:42:28;;;;;;;;;15.50;13.75;;;;;14.63;77.43;102048.38;5051935;28;9750;-66
2022/10/29 01:45:07;;;;;;;;;13.00;13.00;;;;;14.64;77.28;102060.06;5050837;28;9688;-67
2022/10/29 01:47:43;;;;;;;;;16.50;14.25;;;;;14.63;77.40;102059.22;5051354;28;9698;-66
2022/10/29 01:50:14;;;;;;;;;17.00;16.00;;;;;14.61;77.15;102066.69;5052573;28;9386;-66
2022/10/29 01:52:41;;;;;;;;;18.25;14.00;;;;;14.59;77.67;102064.19;5052295;28;9582;-68
2022/10/29 01:55:08;;;;;;;;;13.75;13.75;;;;;14.58;77.49;102067.06;5052163;28;9563;-67
2022/10/29 01:57:37;;;;;;;;;18.75;15.00;;;;;14.56;77.75;102064.56;5052075;28;10085;-67
2022/10/29 02:00:09;;;;;;;;;14.00;10.67;;;;;14.54;77.46;102068.47;5051453;28;9561;-67
2022/10/29 02:02:56;;;;;;;;;19.00;17.00;;;;;14.53;77.68;102069.53;5051863;28;10402;-67
2022/10/29 02:05:37;;;;;;;;;17.50;13.75;;;;;14.52;77.56;102063.25;5051818;28;9527;-68
2022/10/29 02:08:24;;;;;;;;;8.50;8.50;;;;;14.52;77.61;102052.44;5050255;28;9447;-66
2022/10/29 02:11:08;;;;;;;;;14.50;12.00;;;;;14.51;77.52;102049.91;5044569;28;9503;-67
2022/10/29 02:13:43;;;;;;;;;12.25;12.25;;;;;14.50;77.50;102040.09;5050934;28;9621;-67
2022/10/29 02:16:10;;;;;;;;;13.25;13.25;;;;;14.49;76.98;102044.66;5052289;28;9565;-65
2022/10/29 02:18:46;;;;;;;;;19.00;16.75;;;;;14.45;77.20;102031.66;5051822;28;9542;-67
2022/10/29 02:21:17;;;;;;;;;15.75;12.25;;;;;14.44;77.04;102036.25;5051796;28;9724;-68
2022/10/29 02:23:43;;;;;;;;;12.67;12.33;;;;;14.41;77.10;102022.25;5049305;28;9436;-66
2022/10/29 02:26:10;;;;;;;;;15.00;14.00;;;;;14.39;77.35;102025.16;5045136;28;9251;-66
2022/10/29 02:28:37;;;;;;;;;18.00;12.25;;;;;14.39;77.03;102018.91;5052278;28;9642;-65
2022/10/29 02:31:04;;;;;;;;;17.00;16.50;;;;;14.38;76.96;102011.78;5051848;28;9462;-66
2022/10/29 02:33:31;;;;;;;;;18.50;13.50;;;;;14.37;76.99;102008.25;5051763;28;9454;-68
2022/10/29 02:35:57;;;;;;;;;11.75;11.75;;;;;14.34;77.04;102008.63;5051027;28;9608;-68
2022/10/29 02:38:24;;;;;;;;;18.50;15.00;;;;;14.32;77.07;102013.41;5051119;28;9445;-68
2022/10/29 02:40:50;;;;;;;;;10.00;10.00;;;;;14.31;76.95;102014.44;5049749;28;9583;-67
2022/10/29 02:43:16;;;;;;;;;15.75;14.25;;;;;14.31;76.66;102020.69;5049541;28;9485;-66
2022/10/29 02:45:49;;;;;;;;;14.75;11.50;;;;;14.32;76.80;102024.22;5051622;28;9377;-69
2022/10/29 02:48:16;;;;;;;;;13.75;10.00;;;;;14.33;76.82;102024.03;5051789;28;9401;-68
2022/10/29 02:50:42;;;;;;;;;13.00;11.75;;;;;14.34;76.81;102019.44;5051206;28;9454;-68
2022/10/29 02:53:08;;;;;;;;;12.00;9.00;;;;;14.33;76.51;102009.66;5051359;28;9389;-67
2022/10/29 02:55:35;;;;;;;;;13.75;13.00;;;;;14.31;76.23;102012.56;5050832;28;9624;-67
2022/10/29 02:58:01;;;;;;;;;12.50;9.25;;;;;14.28;76.48;102015.63;5057193;28;10282;-68
2022/10/29 03:00:27;;;;;;;;;10.25;9.00;;;;;14.26;76.46;102017.72;5051109;28;9602;-68
2022/10/29 03:02:54;;;;;;;;;13.75;12.50;;;;;14.25;76.45;102017.88;5049388;28;9508;-68
2022/10/29 03:05:21;;;;;;;;;10.25;10.25;;;;;14.24;76.73;102002.66;5051344;28;10318;-68
2022/10/29 03:07:47;;;;;;;;;16.25;12.00;;;;;14.21;76.46;102003.88;5051019;28;9435;-68
2022/10/29 03:10:14;;;;;;;;;10.00;10.00;;;;;14.17;76.07;101999.88;5049850;28;9370;-68
2022/10/29 03:12:40;;;;;;;;;16.00;14.00;;;;;14.14;76.48;101994.84;5050577;28;9698;-67
2022/10/29 03:15:07;;;;;;;;;14.25;12.00;;;;;14.12;76.22;101996.06;5051157;28;10507;-66
2022/10/29 03:17:33;;;;;;;;;10.50;9.50;;;;;14.12;76.48;101996.06;5050714;28;9748;-68
2022/10/29 03:20:00;;;;;;;;;12.00;10.00;;;;;14.16;76.47;101995.50;5050337;28;10327;-68
2022/10/29 03:22:26;;;;;;;;;10.50;9.50;;;;;14.16;76.61;101998.19;5049870;28;9748;-68
2022/10/29 03:24:52;;;;;;;;;14.00;10.25;;;;;14.16;76.36;101998.19;5046031;28;9518;-68
2022/10/29 03:27:19;;;;;;;;;12.00;12.00;;;;;14.14;76.49;102008.41;5050265;28;9434;-68
2022/10/29 03:29:45;;;;;;;;;13.50;10.00;;;;;14.10;76.40;102009.81;5049293;28;9689;-67
2022/10/29 03:32:12;;;;;;;;;15.50;13.25;;;;;14.07;76.21;102002.88;5050041;28;9613;-67
2022/10/29 03:34:38;;;;;;;;;12.25;11.50;;;;;14.08;76.77;102012.69;5050418;28;10165;-67
2022/10/29 03:37:04;;;;;;;;;12.25;11.75;;;;;14.09;76.78;102018.94;5049527;28;9623;-68
2022/10/29 03:39:31;;;;;;;;;9.67;9.00;;;;;14.12;76.95;102015.03;5048181;28;9530;-68
2022/10/29 03:41:57;;;;;;;;;8.33;8.33;;;;;14.16;76.81;102009.03;5050267;28;9500;-68
2022/10/29 03:44:23;;;;;;;;;12.25;10.00;;;;;14.19;76.90;101994.28;5047932;28;9306;-68
2022/10/29 03:46:50;;;;;;;;;15.25;13.00;;;;;14.19;77.00;101999.69;5050057;28;9502;-67
2022/10/29 03:49:16;;;;;;;;;13.00;10.00;;;;;14.23;77.09;102003.72;5049989;28;9723;-68
2022/10/29 03:51:43;;;;;;;;;11.00;11.00;;;;;14.26;77.12;102012.31;5049962;28;10022;-68
2022/10/29 03:54:09;;;;;;;;;14.75;10.75;;;;;14.26;77.03;102006.88;5049157;28;9462;-68
2022/10/29 03:56:35;;;;;;;;;13.00;13.00;;;;;14.27;77.45;102000.44;5049829;28;9569;-69
2022/10/29 03:59:02;;;;;;;;;13.00;10.00;;;;;14.27;77.40;101997.72;5050207;28;9524;-68
2022/10/29 04:01:28;;;;;;;;;11.33;9.33;;;;;14.27;77.61;101995.00;5049386;28;9694;-66
2022/10/29 04:03:55;;;;;;;;;9.25;8.50;;;;;14.27;77.59;102003.13;5049202;28;10238;-68
2022/10/29 04:06:21;;;;;;;;;13.50;12.00;;;;;14.29;77.63;102008.34;5049942;28;9553;-68
2022/10/29 04:08:48;;;;;;;;;13.25;13.00;;;;;14.28;77.58;102002.09;5046913;28;10277;-68
2022/10/29 04:11:14;;;;;;;;;12.50;11.75;;;;;14.29;77.72;102002.94;5048570;28;9457;-68
2022/10/29 04:13:40;;;;;;;;;15.25;14.00;;;;;14.30;77.85;102004.59;5050567;28;9430;-66
2022/10/29 04:16:07;;;;;;;;;9.00;9.00;;;;;14.30;77.66;101986.50;5049909;28;9531;-65
2022/10/29 04:18:34;;;;;;;;;14.00;10.33;;;;;14.29;77.56;101990.22;5049704;28;9397;-66
2022/10/29 04:21:01;;;;;;;;;10.75;9.50;;;;;14.30;77.52;101988.34;5049679;28;9388;-64
2022/10/29 04:23:48;;;;;;;;;10.00;10.00;;;;;14.28;77.62;101980.44;5046786;28;9652;-65
2022/10/29 04:26:35;;;;;;;;;9.00;7.67;;;;;14.29;78.10;101982.09;5061043;28;9397;-64
2022/10/29 04:29:21;;;;;;;;;11.00;9.50;;;;;14.32;78.09;101980.88;5032516;28;9308;-66
2022/10/29 04:31:48;;;;;;;;;13.00;12.00;;;;;14.31;77.92;101988.19;5049537;28;9540;-65
2022/10/29 04:34:14;;;;;;;;;11.50;10.75;;;;;14.31;77.88;101985.47;5049250;28;9512;-66
2022/10/29 04:36:41;;;;;;;;;11.00;9.00;;;;;14.31;77.80;101990.06;5049436;28;9420;-66
2022/10/29 04:39:07;;;;;;;;;10.25;10.25;;;;;14.31;78.06;102001.72;5048310;28;9391;-66
2022/10/29 04:41:33;;;;;;;;;12.00;10.67;;;;;14.30;77.88;101993.78;5048592;28;10187;-65
2022/10/29 04:44:00;;;;;;;;;12.25;12.25;;;;;14.29;77.97;101990.22;5047267;28;9407;-65
2022/10/29 04:46:27;;;;;;;;;15.75;13.00;;;;;14.30;78.03;101989.22;5049209;28;10330;-65
2022/10/29 04:48:53;;;;;;;;;9.50;9.50;;;;;14.30;78.02;101988.34;5049969;28;9472;-65
2022/10/29 04:51:22;;;;;;;;;12.67;10.67;;;;;14.29;77.83;101986.69;5049403;28;10246;-67
2022/10/29 04:53:49;;;;;;;;;10.50;9.25;;;;;14.28;78.35;101974.19;5041626;28;9446;-65
2022/10/29 04:56:16;;;;;;;;;10.75;7.00;;;;;14.28;78.30;101987.72;5049123;28;9504;-64
2022/10/29 04:58:42;;;;;;;;;11.00;8.67;;;;;14.29;78.06;101970.44;5047128;28;9503;-64
2022/10/29 05:01:09;;;;;;;;;10.00;10.00;;;;;14.30;78.33;101964.84;5049096;28;9416;-64
2022/10/29 05:03:35;;;;;;;;;11.25;11.25;;;;;14.29;78.18;101981.25;5049282;28;9371;-64
2022/10/29 05:06:03;;;;;;;;;12.50;12.50;;;;;14.28;78.26;101975.00;5049551;28;10276;-65
2022/10/29 05:08:30;;;;;;;;;10.75;10.75;;;;;14.27;78.31;101981.47;5049088;28;9513;-65
2022/10/29 05:11:00;;;;;;;;;10.75;10.00;;;;;14.26;78.04;101974.38;5049062;28;9606;-64
2022/10/29 05:13:27;;;;;;;;;12.75;9.50;;;;;14.28;78.52;101971.47;5049375;28;9481;-65
2022/10/29 05:15:53;;;;;;;;;15.25;12.00;;;;;14.26;78.36;101960.84;5050346;28;9445;-65
2022/10/29 05:18:20;;;;;;;;;13.00;13.00;;;;;14.26;78.42;101952.72;5052884;28;10359;-64
2022/10/29 05:20:46;;;;;;;;;10.25;10.00;;;;;14.28;78.56;101949.81;5052727;28;9727;-64
2022/10/29 05:23:12;;;;;;;;;9.00;9.00;;;;;14.28;78.46;101949.81;5053130;28;9448;-65
2022/10/29 05:25:40;;;;;;;;;10.50;10.50;;;;;14.28;78.50;101944.38;5051174;28;9436;-63
2022/10/29 05:28:10;;;;;;;;;10.75;8.00;;;;;14.29;78.57;101943.34;5051424;28;10264;-64
2022/10/29 05:30:37;;;;;;;;;12.00;10.25;;;;;14.28;78.35;101944.38;5052476;28;9535;-65
2022/10/29 05:33:06;;;;;;;;;11.25;11.00;;;;;14.29;78.42;101938.75;5052912;28;9584;-64
2022/10/29 05:35:33;;;;;;;;;9.00;7.00;;;;;14.30;78.43;101932.34;5052851;28;9448;-65
2022/10/29 05:38:01;;;;;;;;;11.00;9.00;;;;;14.28;78.53;101925.44;5050446;28;9422;-65
2022/10/29 05:40:27;;;;;;;;;14.33;11.33;;;;;14.27;78.40;101926.47;5052500;28;10183;-65
2022/10/29 05:42:54;;;;;;;;;9.25;8.75;;;;;14.26;78.67;101922.91;5050231;28;9297;-65
2022/10/29 05:45:21;;;;;;;;;12.50;12.00;;;;;14.26;78.37;101925.63;5052851;28;9349;-68
2022/10/29 05:47:47;;;;;;;;;13.25;12.00;;;;;14.26;78.49;101924.75;5066266;28;9524;-67
2022/10/29 05:50:14;;;;;;;;;19.25;16.25;;;;;14.23;78.54;101925.16;5052300;28;10310;-67
2022/10/29 05:52:40;;;;;;;;;17.25;13.00;;;;;14.21;78.40;101928.06;5051542;28;9710;-67
2022/10/29 05:55:07;;;;;;;;;14.25;14.00;;;;;14.22;78.48;101931.59;5048972;28;9509;-68
2022/10/29 05:57:33;;;;;;;;;11.25;11.25;;;;;14.23;78.49;101927.88;5052316;28;9580;-67
2022/10/29 06:00:00;;;;;;;;;14.50;12.25;;;;;14.23;78.67;101939.53;5051887;28;9585;-67
2022/10/29 06:02:26;;;;;;;;;15.33;12.00;;;;;14.26;78.46;101932.88;5052061;28;9527;-67
2022/10/29 06:04:53;;;;;;;;;11.00;9.00;;;;;14.27;78.57;101932.72;5049216;28;9392;-67
2022/10/29 06:07:19;;;;;;;;;17.75;14.75;;;;;14.27;78.58;101932.72;5049505;28;9488;-67
2022/10/29 06:09:45;;;;;;;;;14.00;13.50;;;;;14.27;78.50;101926.47;5051637;28;10263;-66
2022/10/29 06:12:12;;;;;;;;;10.67;10.00;;;;;14.27;78.42;101926.47;5050166;28;9527;-67
2022/10/29 06:14:38;;;;;;;;;16.25;15.75;;;;;14.28;78.60;101936.25;5052195;28;9444;-67
2022/10/29 06:17:05;;;;;;;;;13.00;13.00;;;;;14.26;78.31;101933.75;5051485;28;9612;-67
2022/10/29 06:19:31;;;;;;;;;13.50;13.00;;;;;14.24;78.36;101933.09;5051730;28;9397;-67
2022/10/29 06:21:57;;;;;;;;;16.00;16.00;;;;;14.24;78.71;101934.97;5050966;28;9606;-67
2022/10/29 06:24:26;;;;;;;;;17.75;14.25;;;;;14.24;78.54;101930.38;5051978;28;9733;-67
2022/10/29 06:26:53;;;;;;;;;14.25;11.00;;;;;14.18;78.69;101916.75;5050285;28;9454;-66
2022/10/29 06:29:19;;;;;;;;;16.00;12.50;;;;;14.14;79.04;101920.88;5051648;28;9527;-67
2022/10/29 06:31:46;;;;;;;;;10.25;10.25;;;;;14.14;79.34;101921.75;5051816;28;9588;-67
2022/10/29 06:34:13;;;;;;;;;16.00;12.75;;;;;14.16;79.34;101919.66;5050315;28;9608;-67
2022/10/29 06:36:39;;;;;;;;;14.50;11.75;;;;;14.17;79.42;101918.63;5049587;28;9490;-70
2022/10/29 06:39:06;;;;;;;;;15.25;13.25;;;;;14.20;79.49;101920.97;5048494;28;9446;-67
2022/10/29 06:41:32;;;;;;;;;11.67;11.33;;;;;14.23;79.14;101926.00;5050514;28;9548;-67
2022/10/29 06:43:59;;;;;;;;;11.50;10.00;;;;;14.24;79.13;101922.25;5049517;28;9450;-66
2022/10/29 06:46:25;;;;;;;;;15.00;10.00;;;;;14.27;79.17;101918.34;5051316;28;9477;-67
2022/10/29 06:48:51;;;;;;;;;18.00;14.25;;;;;14.29;79.13;101927.09;5051290;28;9389;-66
2022/10/29 06:51:18;;;;;;;;;12.25;11.25;;;;;14.31;79.06;101919.63;5050931;28;10230;-67
2022/10/29 06:53:44;;;;;;;;;13.25;13.25;;;;;14.30;79.11;101912.50;5050823;28;9420;-68
2022/10/29 06:56:11;;;;;;;;;11.25;9.25;;;;;14.32;79.08;101915.88;5049063;28;10431;-67
2022/10/29 06:58:37;;;;;;;;;13.25;13.25;;;;;14.33;79.30;101907.56;5050434;28;9486;-66
2022/10/29 07:01:04;;;;;;;;;11.00;10.00;;;;;14.35;79.14;101910.09;5050879;28;9448;-68
2022/10/29 07:03:30;;;;;;;;;12.50;12.50;;;;;14.37;79.25;101912.59;5049512;28;9520;-67
2022/10/29 07:05:59;;;;;;;;;9.75;9.75;;;;;14.38;78.88;101904.28;5051262;28;9401;-68
2022/10/29 07:08:25;;;;;;;;;13.00;11.25;;;;;14.41;79.11;101905.75;5050381;28;9398;-67
2022/10/29 07:10:53;;;;;;;;;17.75;16.00;;;;;14.43;79.20;101895.59;5050812;28;9604;-68
2022/10/29 07:13:19;;;;;;;;;15.00;13.50;;;;;14.42;79.18;101891.19;5048936;28;9720;-67
2022/10/29 07:15:46;;;;;;;;;20.00;14.25;;;;;14.44;79.25;101883.72;5050498;28;9627;-67
2022/10/29 07:18:12;;;;;;;;;18.75;16.75;;;;;14.46;79.43;101897.88;5050640;28;9623;-67
2022/10/29 07:20:42;;;;;;;;;15.50;13.75;;;;;14.48;79.45;101910.22;5050851;28;9704;-68
2022/10/29 07:23:10;;;;;;;;;13.67;13.33;;;;;14.52;79.43;101905.28;5050104;28;9531;-67
2022/10/29 07:25:37;;;;;;;;;13.25;10.75;;;;;14.53;79.68;101896.09;5043328;28;9464;-68
2022/10/29 07:28:06;;;;;;;;;15.00;12.50;;;;;14.53;79.44;101899.66;5050030;28;9559;-67
2022/10/29 07:30:33;;;;;;;;;14.50;12.50;;;;;14.50;79.37;101891.94;5049449;28;9397;-68
2022/10/29 07:32:59;;;;;;;;;10.00;10.00;;;;;14.51;79.66;101884.66;5050166;28;9592;-67
2022/10/29 07:35:26;;;;;;;;;13.33;11.00;;;;;14.50;79.68;101874.81;5049710;28;9270;-69
2022/10/29 07:37:57;;;;;;;;;12.33;11.67;;;;;14.49;79.98;101876.69;5047895;28;9323;-68
2022/10/29 07:40:29;;;;;;;;;11.75;10.25;;;;;14.50;79.94;101875.69;5050027;28;9393;-69
2022/10/29 07:42:55;;;;;;;;;10.00;10.00;;;;;14.52;80.00;101875.47;5049224;28;9469;-69
2022/10/29 07:45:22;;;;;;;;;13.67;11.67;;;;;14.55;79.99;101883.22;5049322;28;9427;-67
2022/10/29 07:47:57;;;;;;;;;12.67;12.00;;;;;14.58;79.57;101889.09;5049954;28;9382;-67
2022/10/29 07:50:30;;;;;;;;;9.00;9.00;;;;;14.60;79.46;101888.88;5049898;28;9300;-66
2022/10/29 07:53:00;;;;;;;;;10.00;10.00;;;;;14.62;79.32;101899.53;5050308;28;9532;-66
2022/10/29 07:55:27;;;;;;;;;15.33;15.00;;;;;14.62;79.45;101897.63;5049118;28;9384;-66
2022/10/29 07:58:01;;;;;;;;;9.33;9.33;;;;;14.64;79.12;101894.75;5064149;28;9409;-68
2022/10/29 08:00:29;;;;;;;;;10.25;9.50;;;;;14.65;79.03;101899.97;5049546;28;9487;-67
2022/10/29 08:02:56;;;;;;;;;12.00;11.00;;;;;14.65;79.08;101899.97;5049493;28;9597;-67
2022/10/29 08:05:24;;;;;;;;;7.00;6.67;;;;;14.70;78.96;101886.66;5049962;28;9393;-69
2022/10/29 08:07:54;;;;;;;;;10.00;10.00;;;;;14.72;78.97;101879.19;5049199;28;9336;-66
2022/10/29 08:10:23;;;;;;;;;10.33;9.67;;;;;14.74;78.74;101887.09;5049783;28;9234;-67
2022/10/29 08:12:51;;;;;;;;;11.00;10.00;;;;;14.72;78.98;101892.75;5048928;28;9336;-66
2022/10/29 08:15:19;;;;;;;;;10.75;10.50;;;;;14.72;79.00;101887.31;5047174;28;9446;-67
2022/10/29 08:17:45;;;;;;;;;16.00;14.50;;;;;14.73;79.30;101886.28;5047395;28;9480;-69
2022/10/29 08:20:13;;;;;;;;;14.00;11.33;;;;;14.80;79.31;101895.31;5041459;28;9383;-67
2022/10/29 08:22:39;;;;;;;;;10.33;10.00;;;;;14.81;79.50;101894.25;5042371;28;9237;-66
2022/10/29 08:25:06;;;;;;;;;12.67;12.67;;;;;14.82;79.42;101893.22;5048485;28;9424;-66
2022/10/29 08:27:33;;;;;;;;;13.33;13.00;;;;;14.85;79.40;101894.72;5046541;28;9412;-66
2022/10/29 08:29:59;;;;;;;;;17.00;16.00;;;;;14.89;79.36;101887.88;5047401;28;9382;-66
2022/10/29 08:32:26;;;;;;;;;17.33;16.00;;;;;14.93;79.90;101891.03;5048278;28;9589;-67
2022/10/29 08:34:52;;;;;;;;;21.25;17.50;;;;;14.96;79.65;101896.88;5048258;28;9317;-66
2022/10/29 08:37:19;;;;;;;;;17.00;15.00;;;;;15.01;79.37;101888.16;5046414;28;9591;-67
2022/10/29 08:39:45;;;;;;;;;17.00;15.00;;;;;15.04;79.50;101880.47;5048758;28;9379;-67
2022/10/29 08:42:39;;;;;;;;;19.50;17.50;;;;;15.07;79.45;101877.38;5047656;28;9607;-68
2022/10/29 08:45:14;;;;;;;;;15.75;15.75;;;;;15.07;80.08;101869.22;5046254;28;9507;-68
2022/10/29 08:48:09;;;;;;;;;19.00;16.50;;;;;15.11;79.77;101869.69;5048236;28;9394;-68
2022/10/29 08:50:41;;;;;;;;;20.50;20.00;;;;;15.14;79.91;101865.72;5051028;28;9438;-67
2022/10/29 08:53:22;;;;;;;;;22.25;18.00;;;;;15.17;80.06;101857.19;5051608;28;10729;-67
2022/10/29 08:55:53;;;;;;;;;18.00;16.00;;;;;15.22;80.15;101868.25;5052041;28;9473;-67
2022/10/29 08:58:32;;;;;;;;;28.00;22.50;;;;;15.25;80.25;101876.00;5050914;28;9734;-67
2022/10/29 09:00:58;;;;;;;;;16.00;15.75;;;;;15.30;80.66;101877.06;5052326;28;10309;-68
2022/10/29 09:03:28;;;;;;;;;22.50;20.25;;;;;15.34;80.94;101875.63;5052374;28;10324;-68
2022/10/29 09:06:12;;;;;;;;;24.00;23.75;;;;;15.34;80.92;101870.22;5053276;28;9607;-67
2022/10/29 09:08:57;;;;;;;;;27.50;24.00;;;;;15.38;81.20;101869.81;5052284;28;9789;-67
2022/10/29 09:11:47;;;;;;;;;31.50;24.25;;;;;15.42;81.12;101868.38;5051629;28;9750;-67
2022/10/29 09:14:43;;;;;;;;;24.75;22.25;;;;;15.46;81.24;101867.75;5047053;28;9655;-68
2022/10/29 09:17:31;;;;;;;;;17.67;15.33;;;;;15.55;81.25;101861.13;5047976;28;9716;-68
2022/10/29 09:20:42;;;;;;;;;20.50;19.00;;;;;15.59;81.03;101859.66;5052526;28;9303;-64
2022/10/29 09:23:19;;;;;;;;;21.25;19.75;;;;;15.64;81.05;101834.66;5049800;28;9531;-68
2022/10/29 09:25:52;;;;;;;;;25.25;25.00;;;;;15.69;81.00;101839.50;5050987;28;9524;-66
2022/10/29 09:28:47;;;;;;;;;20.75;19.25;;;;;15.72;80.98;101830.97;5052425;28;9605;-68
2022/10/29 09:31:39;;;;;;;;;28.50;25.50;;;;;15.74;80.93;101829.69;5050987;28;9612;-67
2022/10/29 09:34:16;;;;;;;;;23.00;18.50;;;;;15.78;80.88;101830.13;5051156;28;9612;-67
2022/10/29 09:36:47;;;;;;;;;23.75;22.50;;;;;15.80;81.17;101826.19;5050653;28;9569;-68
2022/10/29 09:39:24;;;;;;;;;25.25;20.00;;;;;15.83;81.04;101827.63;5043819;28;9573;-66
2022/10/29 09:41:58;;;;;;;;;31.25;22.00;;;;;15.89;81.24;101826.00;5051319;28;9359;-69
2022/10/29 09:44:36;;;;;;;;;21.00;17.00;;;;;15.92;80.98;101831.00;5050957;28;9608;-68
2022/10/29 09:47:33;;;;;;;;;29.00;27.67;;;;;15.94;81.29;101829.75;5053071;28;9319;-68
2022/10/29 09:50:18;;;;;;;;;26.33;21.33;;;;;16.00;81.08;101823.53;5051988;28;9393;-67
2022/10/29 09:52:47;;;;;;;;;21.33;18.00;;;;;16.03;81.13;101817.66;5050946;28;10019;-67
2022/10/29 09:55:26;;;;;;;;;24.50;20.50;;;;;16.07;81.04;101804.50;5050411;28;9088;-69
2022/10/29 09:57:55;;;;;;;;;30.00;23.67;;;;;16.05;80.83;101802.00;5056598;28;9554;-67
2022/10/29 10:00:28;;;;;;;;;26.00;18.00;;;;;16.07;81.28;101793.63;5044080;28;10045;-69
2022/10/29 10:03:12;;;;;;;;;21.00;20.33;;;;;16.09;81.05;101799.72;5047609;28;10043;-71
2022/10/29 10:06:00;;;;;;;;;17.67;16.67;;;;;16.11;80.88;101802.19;5051074;28;9304;-66
2022/10/29 10:08:27;;;;;;;;;21.00;19.67;;;;;16.16;81.04;101802.41;5051230;28;9451;-67
2022/10/29 10:10:56;;;;;;;;;28.00;23.00;;;;;16.20;81.34;101795.50;5050498;28;9381;-67
2022/10/29 10:13:25;;;;;;;;;18.00;17.67;;;;;16.25;81.28;101807.44;5067353;28;9474;-67
2022/10/29 10:15:56;;;;;;;;;32.75;25.25;;;;;16.28;81.16;101801.56;5050908;28;9293;-68
2022/10/29 10:18:38;;;;;;;;;22.00;19.67;;;;;16.38;81.22;101797.63;5050398;28;9620;-66
2022/10/29 10:21:10;;;;;;;;;19.00;14.33;;;;;16.47;80.71;101801.81;5051721;28;9266;-67
2022/10/29 10:23:44;;;;;;;;;21.33;20.67;;;;;16.53;81.11;101800.97;5044304;28;9213;-66
2022/10/29 10:26:34;;;;;;;;;23.67;19.33;;;;;16.64;81.09;101789.44;5051851;28;9409;-66
2022/10/29 10:29:18;;;;;;;;;17.67;16.00;;;;;16.71;80.70;101784.84;5051936;28;9301;-67
2022/10/29 10:31:53;;;;;;;;;19.67;19.67;;;;;16.80;80.48;101788.19;5050969;28;9093;-66
2022/10/29 10:34:34;;;;;;;;;18.33;17.67;;;;;16.85;80.18;101787.56;5051665;28;9726;-66
2022/10/29 10:37:12;;;;;;;;;23.00;19.33;;;;;16.90;79.77;101785.88;5051598;28;10010;-67
2022/10/29 10:39:42;;;;;;;;;16.67;14.67;;;;;16.99;79.49;101789.19;5051158;28;10000;-68
2022/10/29 10:42:27;;;;;;;;;21.00;18.00;;;;;17.07;79.31;101769.09;5051595;28;9152;-67
2022/10/29 10:45:00;;;;;;;;;14.00;13.00;;;;;17.11;78.96;101771.16;5051433;28;9300;-67
2022/10/29 10:47:30;;;;;;;;;17.00;16.00;;;;;17.11;78.95;101771.16;5051156;28;9106;-68
2022/10/29 10:50:24;;;;;;;;;16.67;10.33;;;;;17.18;78.21;101766.53;5051289;28;9272;-68
2022/10/29 10:52:53;;;;;;;;;11.67;11.00;;;;;17.18;78.26;101755.66;5043748;28;9024;-67
2022/10/29 10:55:30;;;;;;;;;15.33;13.67;;;;;17.19;78.03;101753.78;5051501;28;8905;-67
2022/10/29 10:58:15;;;;;;;;;17.75;15.25;;;;;17.19;77.95;101754.59;5037878;28;8939;-68
2022/10/29 11:00:47;;;;;;;;;15.67;15.33;;;;;17.21;77.77;101754.38;5046941;28;8867;-68
2022/10/29 11:03:19;;;;;;;;;16.33;16.33;;;;;17.18;78.23;101750.22;5051188;28;8933;-68
2022/10/29 11:05:54;;;;;;;;;18.67;18.67;;;;;17.25;77.68;101758.34;5050962;28;9087;-68
2022/10/29 11:08:45;;;;;;;;;18.00;14.00;;;;;17.33;77.54;101755.38;5062577;28;9161;-68
2022/10/29 11:11:23;;;;;;;;;28.33;21.00;;;;;17.37;77.33;101747.59;5038574;28;9565;-69
2022/10/29 11:13:50;;;;;;;;;23.33;19.67;;;;;17.37;77.41;101747.59;5048180;28;9102;-68
2022/10/29 11:16:26;;;;;;;;;19.00;18.67;;;;;17.37;77.35;101742.16;5051110;28;8993;-67
2022/10/29 11:19:11;;;;;;;;;21.00;15.00;;;;;17.40;76.99;101739.84;5050379;28;9242;-67
2022/10/29 11:21:47;;;;;;;;;17.00;14.67;;;;;17.46;77.23;101749.00;5050474;28;8991;-67
2022/10/29 11:24:34;;;;;;;;;8.33;8.33;;;;;17.52;77.40;101754.44;5049499;28;9667;-68
2022/10/29 11:27:09;;;;;;;;;25.33;19.00;;;;;17.58;77.40;101751.88;5050395;28;9879;-68
2022/10/29 11:30:02;;;;;;;;;14.33;13.00;;;;;17.74;77.02;101752.25;5050504;28;9147;-68
2022/10/29 11:32:45;;;;;;;;;16.67;13.00;;;;;17.76;76.52;101752.03;5043151;28;9023;-68
2022/10/29 11:35:45;;;;;;;;;18.00;18.00;;;;;17.75;76.49;101753.09;5050456;28;8917;-68
2022/10/29 11:38:18;;;;;;;;;20.00;16.33;;;;;17.72;76.31;101737.97;5048917;28;9701;-68